Leedey, OK (73654)

7:24 AM CDT on September 30, 2014 (GMT -0500)
Clinton Municipal | Change Station
CLOSE
Current Station
Airport
Location: Clinton,
Elevation: 1614 ft
Nearby Weather Stations
4.1 Earthquake: Perry, Oklahoma (9 hours ago)  

Elev 1614 ft 35.54 °N, 98.93 °W | Updated 29 minutes ago

Mostly Cloudy
Mostly Cloudy
63 °F
Feels Like 63 °F
N
7
Wind Variable Wind from SE

Today
High -- | Low -- °F
--% Chance of Precip.
Yesterday
High -- | Low -- °F
Precip. -- in
7:31 AM 7:22 PM
Waxing Crescent, 36% visible
Pressure 29.91 in
Visibility 10.0 miles
Clouds Scattered Clouds 9500 ft
Scattered Clouds 12000 ft
Dew Point 57 °F
Humidity 82%
Rainfall 0.00 in
Snow Depth Not available.
UV 0 out of 12
Pollen 9.70 out of 12
Air Quality Not available.
Flu Activity Not available.
METAR KCLK 301155Z AUTO 13006KT 10SM SCT095 SCT120 17/14 A2991 RMK AO2

More Conditions Fewer Conditions

Pressure 29.91 in
Visibility 10.0 miles
Clouds Scattered Clouds 9500 ft
Scattered Clouds 12000 ft
Dew Point 57 °F
Humidity 82%
Rainfall 0.00 in
Snow Depth Not available.
UV 0 out of 12
Pollen 9.70 out of 12
Air Quality Not available.
Flu Activity Not available.
METAR KCLK 301155Z AUTO 13006KT 10SM SCT095 SCT120 17/14 A2991 RMK AO2

More Conditions Fewer Conditions

10-Day Weather Forecast

Almanac

Astronomy

Sep. 30, 2014 Rise Set
Actual Time 7:31 AM CDT 7:22 PM CDT
Civil Twilight 7:06 AM CDT 7:47 PM CDT
Nautical Twilight 6:36 AM CDT 8:17 PM CDT
Astronomical Twilight 6:06 AM CDT 8:47 PM CDT
Moon 1:32 PM CDT No Moon Set
Length of Visible Light 12h 41m
Length of Day
11h 50m
Tomorrow will be 2m 15s shorter.
Waxing Crescent, 36% of the Moon is Illuminated
Today
Waxing Crescent
Oct 1
First Quarter
Oct 8
Full
Oct 15
Last Quarter
Oct 23
New

Today's Extremes

State Highs State Lows

Community

WunderPhotos

Upload Photos

1,757,621 photos uploaded!

Nearby

Snow Depth

Station Depth Elevation
No new snow has been reported.

Earthquake Activity

City Distance Mag. Time & Date
Perry, Oklahoma 103 miles 3.5 1:06 AM CDT
2014-09-30
Perry, Oklahoma 102 miles 3.3 12:58 AM CDT
2014-09-30
Perry, Oklahoma 102 miles 2.7 10:18 PM CDT
2014-09-29
Perry, Oklahoma 103 miles 4.1 10:01 PM CDT
2014-09-29
Minimum magnitude displayed is 2.5.

Coastal Water Temperatures

Place Temperature
No Stations Reporting

Nearby Weather Stations